sensor_id;sensor_type;location;lat;lon;timestamp;P1;durP1;ratioP1;P2;durP2;ratioP2
12663;SDS011;6396;58.490;15.528;2022-08-19T00:00:50;24.07;;;21.67;;
12663;SDS011;6396;58.490;15.528;2022-08-19T00:03:17;23.93;;;21.43;;
12663;SDS011;6396;58.490;15.528;2022-08-19T00:05:44;25.57;;;23.03;;
12663;SDS011;6396;58.490;15.528;2022-08-19T00:08:11;24.47;;;22.13;;
12663;SDS011;6396;58.490;15.528;2022-08-19T00:10:38;24.03;;;21.63;;
12663;SDS011;6396;58.490;15.528;2022-08-19T00:13:04;24.07;;;21.50;;
12663;SDS011;6396;58.490;15.528;2022-08-19T00:15:31;22.63;;;20.50;;
12663;SDS011;6396;58.490;15.528;2022-08-19T00:17:59;24.53;;;22.03;;
12663;SDS011;6396;58.490;15.528;2022-08-19T00:20:26;24.37;;;22.10;;
12663;SDS011;6396;58.490;15.528;2022-08-19T00:22:53;24.67;;;21.93;;
12663;SDS011;6396;58.490;15.528;2022-08-19T00:25:20;23.00;;;20.67;;
12663;SDS011;6396;58.490;15.528;2022-08-19T00:27:47;24.67;;;22.13;;
12663;SDS011;6396;58.490;15.528;2022-08-19T00:30:14;24.70;;;22.13;;
12663;SDS011;6396;58.490;15.528;2022-08-19T00:32:41;24.40;;;22.00;;
12663;SDS011;6396;58.490;15.528;2022-08-19T00:35:10;25.33;;;22.83;;
12663;SDS011;6396;58.490;15.528;2022-08-19T00:37:36;22.30;;;20.27;;
12663;SDS011;6396;58.490;15.528;2022-08-19T00:40:08;23.90;;;21.70;;
12663;SDS011;6396;58.490;15.528;2022-08-19T00:42:37;23.07;;;20.67;;
12663;SDS011;6396;58.490;15.528;2022-08-19T00:45:05;24.47;;;21.97;;
12663;SDS011;6396;58.490;15.528;2022-08-19T00:47:37;22.93;;;20.73;;
12663;SDS011;6396;58.490;15.528;2022-08-19T00:50:04;24.23;;;21.80;;
12663;SDS011;6396;58.490;15.528;2022-08-19T00:52:37;22.90;;;20.70;;
12663;SDS011;6396;58.490;15.528;2022-08-19T00:55:09;22.80;;;20.60;;
12663;SDS011;6396;58.490;15.528;2022-08-19T00:57:37;21.77;;;19.57;;
12663;SDS011;6396;58.490;15.528;2022-08-19T01:00:08;23.17;;;20.97;;
12663;SDS011;6396;58.490;15.528;2022-08-19T01:02:38;24.00;;;21.77;;
12663;SDS011;6396;58.490;15.528;2022-08-19T01:05:08;23.77;;;21.33;;
12663;SDS011;6396;58.490;15.528;2022-08-19T01:07:39;23.53;;;21.17;;
12663;SDS011;6396;58.490;15.528;2022-08-19T01:10:08;23.83;;;21.33;;
12663;SDS011;6396;58.490;15.528;2022-08-19T01:12:37;23.97;;;21.50;;
12663;SDS011;6396;58.490;15.528;2022-08-19T01:15:05;22.83;;;20.63;;
12663;SDS011;6396;58.490;15.528;2022-08-19T01:17:34;22.53;;;20.33;;
12663;SDS011;6396;58.490;15.528;2022-08-19T01:20:04;24.50;;;22.03;;
12663;SDS011;6396;58.490;15.528;2022-08-19T01:22:37;24.67;;;22.17;;
12663;SDS011;6396;58.490;15.528;2022-08-19T01:25:09;22.90;;;20.57;;
12663;SDS011;6396;58.490;15.528;2022-08-19T01:27:37;23.60;;;21.10;;
12663;SDS011;6396;58.490;15.528;2022-08-19T01:30:05;22.30;;;20.10;;
12663;SDS011;6396;58.490;15.528;2022-08-19T01:32:33;23.13;;;20.93;;
12663;SDS011;6396;58.490;15.528;2022-08-19T01:35:01;23.37;;;20.77;;
12663;SDS011;6396;58.490;15.528;2022-08-19T01:37:28;23.00;;;20.73;;
12663;SDS011;6396;58.490;15.528;2022-08-19T01:39:57;25.53;;;22.93;;
12663;SDS011;6396;58.490;15.528;2022-08-19T01:42:24;25.17;;;22.77;;
12663;SDS011;6396;58.490;15.528;2022-08-19T01:44:51;22.63;;;20.43;;
12663;SDS011;6396;58.490;15.528;2022-08-19T01:47:17;25.37;;;22.87;;
12663;SDS011;6396;58.490;15.528;2022-08-19T01:49:44;25.77;;;22.97;;
12663;SDS011;6396;58.490;15.528;2022-08-19T01:52:11;25.33;;;22.70;;
12663;SDS011;6396;58.490;15.528;2022-08-19T01:54:38;24.80;;;22.40;;
12663;SDS011;6396;58.490;15.528;2022-08-19T01:57:08;25.27;;;22.67;;
12663;SDS011;6396;58.490;15.528;2022-08-19T01:59:38;25.13;;;22.50;;
12663;SDS011;6396;58.490;15.528;2022-08-19T02:02:06;24.53;;;22.20;;
12663;SDS011;6396;58.490;15.528;2022-08-19T02:04:33;23.43;;;21.23;;
12663;SDS011;6396;58.490;15.528;2022-08-19T02:07:00;25.30;;;22.67;;
12663;SDS011;6396;58.490;15.528;2022-08-19T02:09:28;26.00;;;23.30;;
12663;SDS011;6396;58.490;15.528;2022-08-19T02:11:54;25.07;;;22.67;;
12663;SDS011;6396;58.490;15.528;2022-08-19T02:14:23;25.50;;;22.80;;
12663;SDS011;6396;58.490;15.528;2022-08-19T02:16:50;24.67;;;22.23;;
12663;SDS011;6396;58.490;15.528;2022-08-19T02:19:16;26.47;;;23.67;;
12663;SDS011;6396;58.490;15.528;2022-08-19T02:21:43;25.43;;;22.87;;
12663;SDS011;6396;58.490;15.528;2022-08-19T02:24:10;24.90;;;22.40;;
12663;SDS011;6396;58.490;15.528;2022-08-19T02:26:38;25.93;;;23.27;;
12663;SDS011;6396;58.490;15.528;2022-08-19T02:29:05;25.80;;;23.20;;
12663;SDS011;6396;58.490;15.528;2022-08-19T02:31:33;26.70;;;23.77;;
12663;SDS011;6396;58.490;15.528;2022-08-19T02:34:00;27.97;;;23.77;;
12663;SDS011;6396;58.490;15.528;2022-08-19T02:36:27;26.00;;;23.40;;
12663;SDS011;6396;58.490;15.528;2022-08-19T02:38:55;26.20;;;23.40;;
12663;SDS011;6396;58.490;15.528;2022-08-19T02:41:22;26.57;;;23.93;;
12663;SDS011;6396;58.490;15.528;2022-08-19T02:43:51;27.77;;;23.80;;
12663;SDS011;6396;58.490;15.528;2022-08-19T02:46:19;28.63;;;24.10;;
12663;SDS011;6396;58.490;15.528;2022-08-19T02:48:49;25.67;;;23.07;;
12663;SDS011;6396;58.490;15.528;2022-08-19T02:51:18;27.67;;;24.40;;
12663;SDS011;6396;58.490;15.528;2022-08-19T02:53:46;31.77;;;24.63;;
12663;SDS011;6396;58.490;15.528;2022-08-19T02:56:13;26.47;;;23.67;;
12663;SDS011;6396;58.490;15.528;2022-08-19T02:58:40;26.27;;;23.50;;
12663;SDS011;6396;58.490;15.528;2022-08-19T03:01:08;26.63;;;23.63;;
12663;SDS011;6396;58.490;15.528;2022-08-19T03:03:36;25.70;;;23.00;;
12663;SDS011;6396;58.490;15.528;2022-08-19T03:06:17;27.93;;;24.70;;
12663;SDS011;6396;58.490;15.528;2022-08-19T03:08:45;25.47;;;22.87;;
12663;SDS011;6396;58.490;15.528;2022-08-19T03:11:15;24.40;;;22.00;;
12663;SDS011;6396;58.490;15.528;2022-08-19T03:13:43;26.07;;;23.23;;
12663;SDS011;6396;58.490;15.528;2022-08-19T03:16:10;25.47;;;22.87;;
12663;SDS011;6396;58.490;15.528;2022-08-19T03:18:38;25.13;;;22.07;;
12663;SDS011;6396;58.490;15.528;2022-08-19T03:21:05;24.60;;;22.10;;
12663;SDS011;6396;58.490;15.528;2022-08-19T03:23:35;26.17;;;23.37;;
12663;SDS011;6396;58.490;15.528;2022-08-19T03:26:03;24.47;;;21.87;;
12663;SDS011;6396;58.490;15.528;2022-08-19T03:28:31;28.37;;;25.47;;
12663;SDS011;6396;58.490;15.528;2022-08-19T03:31:00;26.07;;;23.27;;
12663;SDS011;6396;58.490;15.528;2022-08-19T03:33:28;29.30;;;26.30;;
12663;SDS011;6396;58.490;15.528;2022-08-19T03:36:00;28.07;;;24.17;;
12663;SDS011;6396;58.490;15.528;2022-08-19T03:38:28;29.90;;;25.57;;
12663;SDS011;6396;58.490;15.528;2022-08-19T03:40:56;31.67;;;27.70;;
12663;SDS011;6396;58.490;15.528;2022-08-19T03:43:23;28.70;;;25.60;;
12663;SDS011;6396;58.490;15.528;2022-08-19T03:45:59;32.57;;;27.47;;
12663;SDS011;6396;58.490;15.528;2022-08-19T03:48:29;29.00;;;26.00;;
12663;SDS011;6396;58.490;15.528;2022-08-19T03:50:56;29.77;;;26.43;;
12663;SDS011;6396;58.490;15.528;2022-08-19T03:53:24;31.70;;;28.13;;
12663;SDS011;6396;58.490;15.528;2022-08-19T03:55:51;28.10;;;25.10;;
12663;SDS011;6396;58.490;15.528;2022-08-19T03:58:20;32.30;;;26.90;;
12663;SDS011;6396;58.490;15.528;2022-08-19T04:00:48;29.53;;;25.90;;
12663;SDS011;6396;58.490;15.528;2022-08-19T04:03:15;32.83;;;26.40;;
12663;SDS011;6396;58.490;15.528;2022-08-19T04:05:43;32.43;;;26.07;;
12663;SDS011;6396;58.490;15.528;2022-08-19T04:08:11;30.97;;;26.60;;
12663;SDS011;6396;58.490;15.528;2022-08-19T04:10:38;28.70;;;24.80;;
12663;SDS011;6396;58.490;15.528;2022-08-19T04:13:06;26.97;;;23.73;;
12663;SDS011;6396;58.490;15.528;2022-08-19T04:15:38;27.03;;;23.97;;
12663;SDS011;6396;58.490;15.528;2022-08-19T04:18:06;27.20;;;23.70;;
12663;SDS011;6396;58.490;15.528;2022-08-19T04:20:38;30.50;;;24.10;;
12663;SDS011;6396;58.490;15.528;2022-08-19T04:23:06;33.67;;;24.73;;
12663;SDS011;6396;58.490;15.528;2022-08-19T04:25:35;30.83;;;25.47;;
12663;SDS011;6396;58.490;15.528;2022-08-19T04:28:03;30.07;;;24.97;;
12663;SDS011;6396;58.490;15.528;2022-08-19T04:30:30;29.30;;;25.17;;
12663;SDS011;6396;58.490;15.528;2022-08-19T04:32:58;26.43;;;23.37;;
12663;SDS011;6396;58.490;15.528;2022-08-19T04:35:25;26.50;;;23.40;;
12663;SDS011;6396;58.490;15.528;2022-08-19T04:37:52;22.87;;;20.57;;
12663;SDS011;6396;58.490;15.528;2022-08-19T04:40:19;23.20;;;20.67;;
12663;SDS011;6396;58.490;15.528;2022-08-19T04:43:03;23.73;;;21.33;;
12663;SDS011;6396;58.490;15.528;2022-08-19T04:45:30;22.60;;;20.40;;
12663;SDS011;6396;58.490;15.528;2022-08-19T04:47:58;24.77;;;22.20;;
12663;SDS011;6396;58.490;15.528;2022-08-19T04:50:26;24.13;;;21.63;;
12663;SDS011;6396;58.490;15.528;2022-08-19T04:52:54;26.00;;;23.20;;
12663;SDS011;6396;58.490;15.528;2022-08-19T04:55:22;24.67;;;22.07;;
12663;SDS011;6396;58.490;15.528;2022-08-19T04:57:50;25.87;;;23.17;;
12663;SDS011;6396;58.490;15.528;2022-08-19T05:00:17;25.00;;;21.93;;
12663;SDS011;6396;58.490;15.528;2022-08-19T05:02:44;25.67;;;22.93;;
12663;SDS011;6396;58.490;15.528;2022-08-19T05:05:12;26.73;;;23.93;;
12663;SDS011;6396;58.490;15.528;2022-08-19T05:07:39;24.77;;;22.10;;
12663;SDS011;6396;58.490;15.528;2022-08-19T05:10:06;26.90;;;22.77;;
12663;SDS011;6396;58.490;15.528;2022-08-19T05:12:34;23.87;;;21.33;;
12663;SDS011;6396;58.490;15.528;2022-08-19T05:15:02;23.67;;;21.37;;
12663;SDS011;6396;58.490;15.528;2022-08-19T05:17:33;23.60;;;21.20;;
12663;SDS011;6396;58.490;15.528;2022-08-19T05:20:01;22.67;;;20.37;;
12663;SDS011;6396;58.490;15.528;2022-08-19T05:22:47;22.80;;;20.30;;
12663;SDS011;6396;58.490;15.528;2022-08-19T05:25:16;22.80;;;20.50;;
12663;SDS011;6396;58.490;15.528;2022-08-19T05:27:45;22.43;;;20.00;;
12663;SDS011;6396;58.490;15.528;2022-08-19T05:30:13;25.00;;;22.40;;
12663;SDS011;6396;58.490;15.528;2022-08-19T05:32:39;23.17;;;20.83;;
12663;SDS011;6396;58.490;15.528;2022-08-19T05:35:07;24.50;;;22.00;;
12663;SDS011;6396;58.490;15.528;2022-08-19T05:37:34;22.83;;;20.53;;
12663;SDS011;6396;58.490;15.528;2022-08-19T05:40:03;24.50;;;21.93;;
12663;SDS011;6396;58.490;15.528;2022-08-19T05:42:30;24.03;;;21.10;;
12663;SDS011;6396;58.490;15.528;2022-08-19T05:44:57;23.47;;;21.13;;
12663;SDS011;6396;58.490;15.528;2022-08-19T05:47:24;24.00;;;21.50;;
12663;SDS011;6396;58.490;15.528;2022-08-19T05:49:51;25.70;;;23.10;;
12663;SDS011;6396;58.490;15.528;2022-08-19T05:52:18;23.77;;;21.37;;
12663;SDS011;6396;58.490;15.528;2022-08-19T05:54:45;25.57;;;22.97;;
12663;SDS011;6396;58.490;15.528;2022-08-19T05:57:17;25.80;;;23.10;;
12663;SDS011;6396;58.490;15.528;2022-08-19T05:59:44;25.13;;;22.63;;
12663;SDS011;6396;58.490;15.528;2022-08-19T06:02:15;25.07;;;22.47;;
12663;SDS011;6396;58.490;15.528;2022-08-19T06:04:42;24.23;;;21.83;;
12663;SDS011;6396;58.490;15.528;2022-08-19T06:07:08;24.73;;;21.93;;
12663;SDS011;6396;58.490;15.528;2022-08-19T06:09:35;23.60;;;21.33;;
12663;SDS011;6396;58.490;15.528;2022-08-19T06:12:02;22.60;;;20.40;;
12663;SDS011;6396;58.490;15.528;2022-08-19T06:14:32;22.57;;;20.17;;
12663;SDS011;6396;58.490;15.528;2022-08-19T06:17:00;25.73;;;20.73;;
12663;SDS011;6396;58.490;15.528;2022-08-19T06:19:28;21.67;;;19.30;;
12663;SDS011;6396;58.490;15.528;2022-08-19T06:21:56;23.13;;;20.83;;
12663;SDS011;6396;58.490;15.528;2022-08-19T06:24:25;22.63;;;20.40;;
12663;SDS011;6396;58.490;15.528;2022-08-19T06:26:54;22.90;;;20.60;;
12663;SDS011;6396;58.490;15.528;2022-08-19T06:29:23;21.90;;;19.80;;
12663;SDS011;6396;58.490;15.528;2022-08-19T06:31:55;22.37;;;20.07;;
12663;SDS011;6396;58.490;15.528;2022-08-19T06:34:23;21.37;;;19.37;;
12663;SDS011;6396;58.490;15.528;2022-08-19T06:36:52;20.67;;;18.67;;
12663;SDS011;6396;58.490;15.528;2022-08-19T06:39:20;20.03;;;18.03;;
12663;SDS011;6396;58.490;15.528;2022-08-19T06:41:50;21.17;;;19.07;;
12663;SDS011;6396;58.490;15.528;2022-08-19T06:44:19;22.70;;;20.50;;
12663;SDS011;6396;58.490;15.528;2022-08-19T06:46:46;22.07;;;19.87;;
12663;SDS011;6396;58.490;15.528;2022-08-19T06:49:15;20.97;;;18.90;;
12663;SDS011;6396;58.490;15.528;2022-08-19T06:51:43;20.77;;;18.67;;
12663;SDS011;6396;58.490;15.528;2022-08-19T06:54:13;19.10;;;17.33;;
12663;SDS011;6396;58.490;15.528;2022-08-19T06:56:41;19.73;;;17.93;;
12663;SDS011;6396;58.490;15.528;2022-08-19T06:59:11;19.63;;;17.73;;
12663;SDS011;6396;58.490;15.528;2022-08-19T07:01:40;20.50;;;18.40;;
12663;SDS011;6396;58.490;15.528;2022-08-19T07:04:10;18.60;;;16.90;;
12663;SDS011;6396;58.490;15.528;2022-08-19T07:06:39;18.20;;;16.60;;
12663;SDS011;6396;58.490;15.528;2022-08-19T07:09:06;16.47;;;15.03;;
12663;SDS011;6396;58.490;15.528;2022-08-19T07:11:34;16.13;;;14.70;;
12663;SDS011;6396;58.490;15.528;2022-08-19T07:14:02;16.20;;;14.60;;
12663;SDS011;6396;58.490;15.528;2022-08-19T07:16:29;14.33;;;12.93;;
12663;SDS011;6396;58.490;15.528;2022-08-19T07:18:57;13.70;;;12.50;;
12663;SDS011;6396;58.490;15.528;2022-08-19T07:21:25;14.97;;;13.57;;
12663;SDS011;6396;58.490;15.528;2022-08-19T07:23:55;13.67;;;12.47;;
12663;SDS011;6396;58.490;15.528;2022-08-19T07:26:24;13.47;;;12.17;;
12663;SDS011;6396;58.490;15.528;2022-08-19T07:28:53;12.57;;;11.57;;
12663;SDS011;6396;58.490;15.528;2022-08-19T07:31:21;12.57;;;11.47;;
12663;SDS011;6396;58.490;15.528;2022-08-19T07:33:50;12.10;;;11.10;;
12663;SDS011;6396;58.490;15.528;2022-08-19T07:36:22;11.50;;;10.60;;
12663;SDS011;6396;58.490;15.528;2022-08-19T07:38:52;11.07;;;10.18;;
12663;SDS011;6396;58.490;15.528;2022-08-19T07:41:22;11.90;;;10.80;;
12663;SDS011;6396;58.490;15.528;2022-08-19T07:43:50;11.90;;;10.77;;
12663;SDS011;6396;58.490;15.528;2022-08-19T07:46:18;10.23;;;9.52;;
12663;SDS011;6396;58.490;15.528;2022-08-19T07:48:49;11.15;;;10.15;;
12663;SDS011;6396;58.490;15.528;2022-08-19T07:51:18;10.38;;;9.48;;
12663;SDS011;6396;58.490;15.528;2022-08-19T07:53:47;10.27;;;9.35;;
12663;SDS011;6396;58.490;15.528;2022-08-19T07:56:15;9.45;;;8.60;;
12663;SDS011;6396;58.490;15.528;2022-08-19T07:58:45;9.82;;;9.07;;
12663;SDS011;6396;58.490;15.528;2022-08-19T08:01:14;9.27;;;8.55;;
12663;SDS011;6396;58.490;15.528;2022-08-19T08:03:44;9.20;;;8.40;;
12663;SDS011;6396;58.490;15.528;2022-08-19T08:06:29;9.25;;;8.52;;
12663;SDS011;6396;58.490;15.528;2022-08-19T08:09:14;8.38;;;7.57;;
12663;SDS011;6396;58.490;15.528;2022-08-19T08:11:47;8.15;;;7.55;;
12663;SDS011;6396;58.490;15.528;2022-08-19T08:14:18;10.40;;;8.10;;
12663;SDS011;6396;58.490;15.528;2022-08-19T08:16:46;8.13;;;7.47;;
12663;SDS011;6396;58.490;15.528;2022-08-19T08:19:15;7.97;;;7.40;;
12663;SDS011;6396;58.490;15.528;2022-08-19T08:21:42;7.82;;;7.22;;
12663;SDS011;6396;58.490;15.528;2022-08-19T08:24:10;8.77;;;7.95;;
12663;SDS011;6396;58.490;15.528;2022-08-19T08:26:37;7.50;;;6.88;;
12663;SDS011;6396;58.490;15.528;2022-08-19T08:29:04;8.95;;;8.15;;
12663;SDS011;6396;58.490;15.528;2022-08-19T08:31:34;9.40;;;7.40;;
12663;SDS011;6396;58.490;15.528;2022-08-19T08:34:00;9.10;;;8.30;;
12663;SDS011;6396;58.490;15.528;2022-08-19T08:36:27;7.82;;;7.13;;
12663;SDS011;6396;58.490;15.528;2022-08-19T08:38:58;8.68;;;6.85;;
12663;SDS011;6396;58.490;15.528;2022-08-19T08:41:27;7.22;;;6.63;;
12663;SDS011;6396;58.490;15.528;2022-08-19T08:44:00;6.72;;;6.22;;
12663;SDS011;6396;58.490;15.528;2022-08-19T08:46:31;7.85;;;7.20;;
12663;SDS011;6396;58.490;15.528;2022-08-19T08:49:06;7.70;;;6.82;;
12663;SDS011;6396;58.490;15.528;2022-08-19T08:51:48;7.93;;;7.22;;
12663;SDS011;6396;58.490;15.528;2022-08-19T08:54:19;6.60;;;6.10;;
12663;SDS011;6396;58.490;15.528;2022-08-19T08:56:49;7.60;;;6.93;;
12663;SDS011;6396;58.490;15.528;2022-08-19T08:59:21;8.32;;;7.53;;
12663;SDS011;6396;58.490;15.528;2022-08-19T09:01:54;8.00;;;7.40;;
12663;SDS011;6396;58.490;15.528;2022-08-19T09:04:20;7.25;;;6.65;;
12663;SDS011;6396;58.490;15.528;2022-08-19T09:06:49;7.35;;;6.85;;
12663;SDS011;6396;58.490;15.528;2022-08-19T09:09:24;7.43;;;6.68;;
12663;SDS011;6396;58.490;15.528;2022-08-19T09:12:00;8.82;;;7.63;;
12663;SDS011;6396;58.490;15.528;2022-08-19T09:14:53;7.18;;;6.53;;
12663;SDS011;6396;58.490;15.528;2022-08-19T09:17:32;7.65;;;7.05;;
12663;SDS011;6396;58.490;15.528;2022-08-19T09:20:06;7.53;;;6.93;;
12663;SDS011;6396;58.490;15.528;2022-08-19T09:22:51;8.95;;;8.15;;
12663;SDS011;6396;58.490;15.528;2022-08-19T09:28:57;9.05;;;8.13;;
12663;SDS011;6396;58.490;15.528;2022-08-19T09:31:46;8.85;;;8.02;;
12663;SDS011;6396;58.490;15.528;2022-08-19T09:35:02;8.38;;;7.55;;
12663;SDS011;6396;58.490;15.528;2022-08-19T09:37:31;9.77;;;8.40;;
12663;SDS011;6396;58.490;15.528;2022-08-19T09:39:58;9.02;;;7.43;;
12663;SDS011;6396;58.490;15.528;2022-08-19T09:42:25;8.05;;;7.25;;
12663;SDS011;6396;58.490;15.528;2022-08-19T09:44:51;9.38;;;8.45;;
12663;SDS011;6396;58.490;15.528;2022-08-19T09:47:18;8.30;;;7.60;;
12663;SDS011;6396;58.490;15.528;2022-08-19T09:49:45;10.93;;;8.27;;
12663;SDS011;6396;58.490;15.528;2022-08-19T09:52:15;9.15;;;7.82;;
12663;SDS011;6396;58.490;15.528;2022-08-19T09:54:42;8.52;;;7.68;;
12663;SDS011;6396;58.490;15.528;2022-08-19T09:57:09;7.40;;;6.68;;
12663;SDS011;6396;58.490;15.528;2022-08-19T09:59:36;8.95;;;8.07;;
12663;SDS011;6396;58.490;15.528;2022-08-19T10:02:03;10.85;;;8.05;;
12663;SDS011;6396;58.490;15.528;2022-08-19T10:04:34;8.48;;;7.55;;
12663;SDS011;6396;58.490;15.528;2022-08-19T10:07:16;9.93;;;9.02;;
12663;SDS011;6396;58.490;15.528;2022-08-19T10:09:43;8.60;;;7.82;;
12663;SDS011;6396;58.490;15.528;2022-08-19T10:12:10;8.40;;;7.63;;
12663;SDS011;6396;58.490;15.528;2022-08-19T10:14:40;8.93;;;8.05;;
12663;SDS011;6396;58.490;15.528;2022-08-19T10:17:07;9.10;;;8.40;;
12663;SDS011;6396;58.490;15.528;2022-08-19T10:19:34;9.43;;;8.45;;
12663;SDS011;6396;58.490;15.528;2022-08-19T10:22:02;9.55;;;8.07;;
12663;SDS011;6396;58.490;15.528;2022-08-19T10:24:33;10.82;;;8.70;;
12663;SDS011;6396;58.490;15.528;2022-08-19T10:27:00;9.88;;;8.90;;
12663;SDS011;6396;58.490;15.528;2022-08-19T10:29:29;8.32;;;7.72;;
12663;SDS011;6396;58.490;15.528;2022-08-19T10:32:00;7.82;;;7.13;;
12663;SDS011;6396;58.490;15.528;2022-08-19T10:34:31;7.78;;;6.70;;
12663;SDS011;6396;58.490;15.528;2022-08-19T10:36:58;9.18;;;7.03;;
12663;SDS011;6396;58.490;15.528;2022-08-19T10:39:26;8.00;;;7.25;;
12663;SDS011;6396;58.490;15.528;2022-08-19T10:41:56;7.30;;;6.65;;
12663;SDS011;6396;58.490;15.528;2022-08-19T10:44:23;8.85;;;7.05;;
12663;SDS011;6396;58.490;15.528;2022-08-19T10:46:52;8.65;;;6.80;;
12663;SDS011;6396;58.490;15.528;2022-08-19T10:49:22;7.32;;;6.60;;
12663;SDS011;6396;58.490;15.528;2022-08-19T10:51:49;9.40;;;6.22;;
12663;SDS011;6396;58.490;15.528;2022-08-19T10:54:33;7.25;;;6.47;;
12663;SDS011;6396;58.490;15.528;2022-08-19T10:57:19;11.95;;;7.28;;
12663;SDS011;6396;58.490;15.528;2022-08-19T10:59:49;7.80;;;7.05;;
12663;SDS011;6396;58.490;15.528;2022-08-19T11:02:20;7.97;;;6.72;;
12663;SDS011;6396;58.490;15.528;2022-08-19T11:04:47;8.18;;;7.38;;
12663;SDS011;6396;58.490;15.528;2022-08-19T11:07:16;7.50;;;6.80;;
12663;SDS011;6396;58.490;15.528;2022-08-19T11:09:45;7.55;;;6.70;;
12663;SDS011;6396;58.490;15.528;2022-08-19T11:12:12;7.32;;;6.57;;
12663;SDS011;6396;58.490;15.528;2022-08-19T11:14:41;8.07;;;7.28;;
12663;SDS011;6396;58.490;15.528;2022-08-19T11:17:08;8.15;;;6.55;;
12663;SDS011;6396;58.490;15.528;2022-08-19T11:19:36;9.68;;;7.50;;
12663;SDS011;6396;58.490;15.528;2022-08-19T11:22:03;8.00;;;7.00;;
12663;SDS011;6396;58.490;15.528;2022-08-19T11:24:30;7.88;;;6.72;;
12663;SDS011;6396;58.490;15.528;2022-08-19T11:27:00;10.90;;;7.57;;
12663;SDS011;6396;58.490;15.528;2022-08-19T11:29:30;9.10;;;6.57;;
12663;SDS011;6396;58.490;15.528;2022-08-19T11:31:59;7.90;;;7.22;;
12663;SDS011;6396;58.490;15.528;2022-08-19T11:34:28;7.05;;;6.45;;
12663;SDS011;6396;58.490;15.528;2022-08-19T11:36:56;6.32;;;5.72;;
12663;SDS011;6396;58.490;15.528;2022-08-19T11:39:26;10.00;;;7.10;;
12663;SDS011;6396;58.490;15.528;2022-08-19T11:41:54;7.30;;;6.60;;
12663;SDS011;6396;58.490;15.528;2022-08-19T11:44:21;6.95;;;6.35;;
12663;SDS011;6396;58.490;15.528;2022-08-19T11:46:48;7.00;;;6.13;;
12663;SDS011;6396;58.490;15.528;2022-08-19T11:49:17;7.30;;;6.60;;
12663;SDS011;6396;58.490;15.528;2022-08-19T11:51:46;9.82;;;6.65;;
12663;SDS011;6396;58.490;15.528;2022-08-19T11:54:15;7.28;;;6.57;;
12663;SDS011;6396;58.490;15.528;2022-08-19T11:56:43;10.68;;;7.28;;
12663;SDS011;6396;58.490;15.528;2022-08-19T11:59:10;7.93;;;6.88;;
12663;SDS011;6396;58.490;15.528;2022-08-19T12:01:37;9.88;;;6.43;;
12663;SDS011;6396;58.490;15.528;2022-08-19T12:04:05;8.90;;;6.93;;
12663;SDS011;6396;58.490;15.528;2022-08-19T12:06:36;7.50;;;6.43;;
12663;SDS011;6396;58.490;15.528;2022-08-19T12:09:15;7.93;;;6.30;;
12663;SDS011;6396;58.490;15.528;2022-08-19T12:11:42;7.65;;;6.85;;
12663;SDS011;6396;58.490;15.528;2022-08-19T12:14:12;7.95;;;7.25;;
12663;SDS011;6396;58.490;15.528;2022-08-19T12:16:39;8.35;;;6.82;;
12663;SDS011;6396;58.490;15.528;2022-08-19T12:19:07;7.55;;;6.57;;
12663;SDS011;6396;58.490;15.528;2022-08-19T12:21:35;7.75;;;7.03;;
12663;SDS011;6396;58.490;15.528;2022-08-19T12:24:03;7.88;;;7.22;;
12663;SDS011;6396;58.490;15.528;2022-08-19T12:26:31;7.50;;;6.82;;
12663;SDS011;6396;58.490;15.528;2022-08-19T12:28:58;8.98;;;6.63;;
12663;SDS011;6396;58.490;15.528;2022-08-19T12:31:25;8.60;;;7.13;;
12663;SDS011;6396;58.490;15.528;2022-08-19T12:33:53;7.28;;;6.57;;
12663;SDS011;6396;58.490;15.528;2022-08-19T12:36:21;8.32;;;7.10;;
12663;SDS011;6396;58.490;15.528;2022-08-19T12:38:50;9.07;;;6.65;;
12663;SDS011;6396;58.490;15.528;2022-08-19T12:41:18;7.93;;;7.22;;
12663;SDS011;6396;58.490;15.528;2022-08-19T12:43:47;7.47;;;6.63;;
12663;SDS011;6396;58.490;15.528;2022-08-19T12:46:15;8.57;;;6.95;;
12663;SDS011;6396;58.490;15.528;2022-08-19T12:48:42;7.85;;;7.15;;
12663;SDS011;6396;58.490;15.528;2022-08-19T12:51:10;7.80;;;7.00;;
12663;SDS011;6396;58.490;15.528;2022-08-19T12:53:39;8.77;;;7.13;;
12663;SDS011;6396;58.490;15.528;2022-08-19T12:56:09;7.88;;;7.20;;
12663;SDS011;6396;58.490;15.528;2022-08-19T12:58:37;7.70;;;6.93;;
12663;SDS011;6396;58.490;15.528;2022-08-19T13:01:07;9.55;;;7.47;;
12663;SDS011;6396;58.490;15.528;2022-08-19T13:03:35;8.48;;;7.53;;
12663;SDS011;6396;58.490;15.528;2022-08-19T13:06:05;7.97;;;7.20;;
12663;SDS011;6396;58.490;15.528;2022-08-19T13:08:33;7.97;;;6.47;;
12663;SDS011;6396;58.490;15.528;2022-08-19T13:11:07;7.30;;;6.60;;
12663;SDS011;6396;58.490;15.528;2022-08-19T13:13:37;8.10;;;7.40;;
12663;SDS011;6396;58.490;15.528;2022-08-19T13:16:06;8.50;;;7.60;;
12663;SDS011;6396;58.490;15.528;2022-08-19T13:18:34;7.65;;;7.05;;
12663;SDS011;6396;58.490;15.528;2022-08-19T13:21:01;7.63;;;7.03;;
12663;SDS011;6396;58.490;15.528;2022-08-19T13:23:30;8.32;;;7.07;;
12663;SDS011;6396;58.490;15.528;2022-08-19T13:25:57;7.35;;;6.72;;
12663;SDS011;6396;58.490;15.528;2022-08-19T13:28:25;7.32;;;6.72;;
12663;SDS011;6396;58.490;15.528;2022-08-19T13:31:14;8.35;;;7.55;;
12663;SDS011;6396;58.490;15.528;2022-08-19T13:33:58;8.93;;;6.97;;
12663;SDS011;6396;58.490;15.528;2022-08-19T13:36:25;8.00;;;6.97;;
12663;SDS011;6396;58.490;15.528;2022-08-19T13:38:52;7.80;;;6.88;;
12663;SDS011;6396;58.490;15.528;2022-08-19T13:41:19;7.63;;;6.93;;
12663;SDS011;6396;58.490;15.528;2022-08-19T13:43:47;8.88;;;6.68;;
12663;SDS011;6396;58.490;15.528;2022-08-19T13:46:14;9.13;;;7.03;;
12663;SDS011;6396;58.490;15.528;2022-08-19T13:48:41;7.68;;;6.93;;
12663;SDS011;6396;58.490;15.528;2022-08-19T13:51:08;7.53;;;6.82;;
12663;SDS011;6396;58.490;15.528;2022-08-19T13:53:36;7.90;;;7.10;;
12663;SDS011;6396;58.490;15.528;2022-08-19T13:56:04;8.07;;;6.85;;
12663;SDS011;6396;58.490;15.528;2022-08-19T13:58:32;7.43;;;6.80;;
12663;SDS011;6396;58.490;15.528;2022-08-19T14:01:00;7.53;;;6.80;;
12663;SDS011;6396;58.490;15.528;2022-08-19T14:03:27;7.05;;;6.35;;
12663;SDS011;6396;58.490;15.528;2022-08-19T14:05:54;6.68;;;6.07;;
12663;SDS011;6396;58.490;15.528;2022-08-19T14:08:21;7.72;;;6.70;;
12663;SDS011;6396;58.490;15.528;2022-08-19T14:10:48;7.15;;;6.47;;
12663;SDS011;6396;58.490;15.528;2022-08-19T14:13:16;9.38;;;7.38;;
12663;SDS011;6396;58.490;15.528;2022-08-19T14:15:45;6.75;;;6.00;;
12663;SDS011;6396;58.490;15.528;2022-08-19T14:18:15;7.00;;;6.32;;
12663;SDS011;6396;58.490;15.528;2022-08-19T14:20:43;8.18;;;7.35;;
12663;SDS011;6396;58.490;15.528;2022-08-19T14:23:10;7.03;;;6.32;;
12663;SDS011;6396;58.490;15.528;2022-08-19T14:25:38;7.00;;;6.35;;
12663;SDS011;6396;58.490;15.528;2022-08-19T14:28:05;7.75;;;6.95;;
12663;SDS011;6396;58.490;15.528;2022-08-19T14:30:33;7.93;;;6.47;;
12663;SDS011;6396;58.490;15.528;2022-08-19T14:33:03;7.43;;;6.72;;
12663;SDS011;6396;58.490;15.528;2022-08-19T14:35:33;8.20;;;6.68;;
12663;SDS011;6396;58.490;15.528;2022-08-19T14:38:00;7.20;;;6.60;;
12663;SDS011;6396;58.490;15.528;2022-08-19T14:40:28;6.53;;;5.90;;
12663;SDS011;6396;58.490;15.528;2022-08-19T14:42:57;9.15;;;6.90;;
12663;SDS011;6396;58.490;15.528;2022-08-19T14:45:29;9.18;;;6.80;;
12663;SDS011;6396;58.490;15.528;2022-08-19T14:47:57;7.50;;;6.65;;